Time;durP1;ratioP1;P1;durP2;ratioP2;P2;SDS_P1;SDS_P2;PMS_P1;PMS_P2;Temp;Humidity;BMP_temperature;BMP_pressure;BME280_temperature;BME280_humidity;BME280_pressure;Samples;Min_cycle;Max_cycle;Signal;HPM_P1;HPM_P2
2023/06/03 00:00:03;;;;;;;8.00;3.50;;;22.10;40.50;;;;;;5034481;28;20583;-47
2023/06/03 00:02:29;;;;;;;5.53;4.00;;;22.00;40.60;;;;;;5032419;28;20684;-51
2023/06/03 00:04:55;;;;;;;8.63;4.40;;;21.90;40.80;;;;;;5034057;28;20456;-51
2023/06/03 00:07:20;;;;;;;4.90;3.97;;;21.90;40.90;;;;;;5051052;28;20196;-49
2023/06/03 00:09:46;;;;;;;4.33;3.90;;;21.90;41.00;;;;;;5044057;28;20190;-51
2023/06/03 00:12:11;;;;;;;7.13;3.60;;;21.80;41.00;;;;;;5033877;28;20197;-49
2023/06/03 00:14:37;;;;;;;4.53;3.40;;;21.80;41.20;;;;;;5034195;28;20194;-46
2023/06/03 00:17:03;;;;;;;9.80;4.40;;;21.80;41.10;;;;;;5034015;28;20201;-48
2023/06/03 00:19:28;;;;;;;11.07;3.73;;;21.70;41.00;;;;;;5034005;28;20227;-47
2023/06/03 00:21:54;;;;;;;8.63;3.77;;;21.70;41.20;;;;;;5033680;28;20686;-48
2023/06/03 00:24:22;;;;;;;7.03;4.33;;;21.70;41.30;;;;;;5034102;28;20559;-47
2023/06/03 00:26:48;;;;;;;9.93;4.10;;;21.70;41.50;;;;;;5033306;28;20216;-48
2023/06/03 00:29:14;;;;;;;8.47;4.37;;;21.60;41.70;;;;;;5032364;28;20865;-47
2023/06/03 00:31:40;;;;;;;6.03;3.73;;;21.50;41.90;;;;;;5033351;28;20442;-48
2023/06/03 00:34:05;;;;;;;5.70;3.30;;;21.50;42.00;;;;;;5033743;28;20649;-47
2023/06/03 00:36:31;;;;;;;8.77;4.20;;;21.40;42.10;;;;;;5033562;28;20193;-47
2023/06/03 00:38:56;;;;;;;6.57;3.93;;;21.40;42.10;;;;;;5033449;28;20229;-47
2023/06/03 00:41:22;;;;;;;9.53;4.20;;;21.30;42.20;;;;;;5033206;28;20272;-47
2023/06/03 00:43:48;;;;;;;5.43;4.07;;;21.30;42.30;;;;;;5033611;28;20196;-47
2023/06/03 00:46:15;;;;;;;7.23;4.10;;;21.30;42.40;;;;;;5033513;28;20213;-49
2023/06/03 00:48:41;;;;;;;8.37;4.47;;;21.20;42.40;;;;;;5033488;28;20676;-47
2023/06/03 00:51:07;;;;;;;8.40;3.80;;;21.20;42.50;;;;;;5033128;28;20460;-48
2023/06/03 00:53:33;;;;;;;8.80;3.73;;;21.10;42.40;;;;;;5036100;28;20660;-48
2023/06/03 00:55:59;;;;;;;6.93;4.00;;;21.10;42.50;;;;;;5049079;28;20197;-47
2023/06/03 00:58:25;;;;;;;7.50;3.50;;;21.10;42.70;;;;;;5033284;28;20189;-49
2023/06/03 01:00:50;;;;;;;5.97;4.03;;;21.00;42.70;;;;;;5033161;28;21073;-53
2023/06/03 01:03:19;;;;;;;6.23;3.60;;;21.00;42.80;;;;;;5032764;28;20216;-51
2023/06/03 01:05:49;;;;;;;9.17;3.67;;;21.00;42.80;;;;;;5036581;28;20240;-52
2023/06/03 01:08:22;;;;;;;6.83;3.70;;;21.00;42.80;;;;;;5053011;28;21284;-47
2023/06/03 01:11:02;;;;;;;7.33;4.03;;;20.90;43.00;;;;;;5034370;28;20428;-47
2023/06/03 01:13:55;;;;;;;8.80;4.27;;;20.90;43.10;;;;;;5032873;28;20428;-48
2023/06/03 01:16:23;;;;;;;10.47;5.13;;;20.90;43.20;;;;;;5026837;28;21049;-47
2023/06/03 01:18:51;;;;;;;9.47;4.40;;;20.90;43.70;;;;;;5032852;28;20420;-47
2023/06/03 01:21:17;;;;;;;8.60;3.93;;;20.80;43.80;;;;;;5030735;28;20428;-48
2023/06/03 01:23:44;;;;;;;6.57;3.90;;;20.80;43.80;;;;;;5032880;28;20432;-47
2023/06/03 01:26:11;;;;;;;5.17;3.60;;;20.70;43.90;;;;;;5032892;28;20284;-47
2023/06/03 01:28:38;;;;;;;7.70;3.10;;;20.70;43.80;;;;;;5032620;28;20432;-47
2023/06/03 01:31:05;;;;;;;7.50;4.27;;;20.70;43.80;;;;;;5031106;28;20958;-47
2023/06/03 01:33:32;;;;;;;8.73;5.00;;;20.70;43.70;;;;;;5032611;28;20941;-47
2023/06/03 01:36:00;;;;;;;13.90;5.00;;;20.60;43.90;;;;;;5032765;28;20423;-47
2023/06/03 01:38:26;;;;;;;5.00;4.20;;;20.50;44.50;;;;;;5031793;28;20428;-47
2023/06/03 01:40:52;;;;;;;6.43;5.73;;;20.50;45.30;;;;;;5032143;28;20903;-47
2023/06/03 01:43:18;;;;;;;11.03;4.53;;;20.50;44.70;;;;;;5032238;28;20428;-47
2023/06/03 01:45:45;;;;;;;5.40;3.73;;;20.40;44.70;;;;;;5032424;28;20424;-48
2023/06/03 01:48:11;;;;;;;6.90;3.83;;;20.40;44.70;;;;;;5030756;28;20200;-48
2023/06/03 01:50:41;;;;;;;5.60;4.03;;;20.40;44.60;;;;;;5032265;28;20566;-49
2023/06/03 01:53:07;;;;;;;7.93;4.03;;;20.40;44.50;;;;;;5031857;28;20471;-46
2023/06/03 01:55:33;;;;;;;7.67;3.80;;;20.30;44.50;;;;;;5051347;28;20432;-49
2023/06/03 01:57:59;;;;;;;6.90;4.40;;;20.30;44.60;;;;;;5032421;28;20828;-47
2023/06/03 02:00:25;;;;;;;5.83;4.87;;;20.20;44.80;;;;;;5032017;28;20237;-51
2023/06/03 02:02:50;;;;;;;7.73;4.37;;;20.10;44.90;;;;;;5031771;28;20247;-48
2023/06/03 02:05:16;;;;;;;6.10;4.40;;;20.10;45.00;;;;;;5031835;28;20304;-47
2023/06/03 02:07:41;;;;;;;6.03;4.37;;;20.10;45.20;;;;;;5051397;28;20200;-47
2023/06/03 02:10:07;;;;;;;7.13;4.43;;;20.00;45.30;;;;;;5039089;28;20232;-46
2023/06/03 02:12:33;;;;;;;9.23;4.30;;;20.00;45.40;;;;;;5031826;28;20193;-47
2023/06/03 02:14:58;;;;;;;13.63;5.00;;;19.90;46.10;;;;;;5030401;28;20282;-47
2023/06/03 02:17:24;;;;;;;7.67;4.17;;;19.90;46.10;;;;;;5032037;28;20243;-47
2023/06/03 02:19:53;;;;;;;8.97;4.20;;;19.80;45.80;;;;;;5032083;28;20304;-47
2023/06/03 02:22:20;;;;;;;6.30;4.63;;;19.80;46.30;;;;;;5031312;28;20639;-47
2023/06/03 02:24:46;;;;;;;6.30;4.20;;;19.80;46.60;;;;;;5031677;28;20471;-47
2023/06/03 02:27:15;;;;;;;8.80;4.97;;;19.80;46.80;;;;;;5031664;28;20950;-47
2023/06/03 02:29:50;;;;;;;5.43;4.40;;;19.70;46.70;;;;;;5031608;28;20249;-47
2023/06/03 02:32:15;;;;;;;5.77;4.40;;;19.70;46.70;;;;;;5038920;28;20435;-47
2023/06/03 02:34:42;;;;;;;5.43;4.07;;;19.60;46.80;;;;;;5051286;28;20986;-47
2023/06/03 02:37:08;;;;;;;9.83;4.87;;;19.60;46.70;;;;;;5051607;28;20250;-46
2023/06/03 02:39:34;;;;;;;8.30;4.40;;;19.60;46.80;;;;;;5051285;28;20886;-47
2023/06/03 02:41:59;;;;;;;9.63;4.90;;;19.60;46.70;;;;;;5049717;28;20651;-47
2023/06/03 02:44:25;;;;;;;7.60;4.90;;;19.60;46.70;;;;;;5051305;28;20510;-47
2023/06/03 02:46:50;;;;;;;9.43;4.73;;;19.60;46.70;;;;;;5051661;28;20670;-47
2023/06/03 02:49:16;;;;;;;7.67;5.37;;;19.50;46.50;;;;;;5051207;28;20196;-46
2023/06/03 02:51:42;;;;;;;6.87;4.73;;;19.50;47.20;;;;;;5051203;28;20197;-47
2023/06/03 02:54:07;;;;;;;8.30;4.80;;;19.40;47.00;;;;;;5043730;28;20251;-47
2023/06/03 02:56:33;;;;;;;6.13;4.77;;;19.40;47.60;;;;;;5031250;28;20292;-47
2023/06/03 02:58:59;;;;;;;6.77;4.73;;;19.30;47.10;;;;;;5031290;28;20193;-46
2023/06/03 03:01:26;;;;;;;7.93;5.10;;;19.30;47.30;;;;;;5031167;28;20721;-48
2023/06/03 03:03:52;;;;;;;9.30;4.87;;;19.30;47.20;;;;;;5031319;28;20189;-47
2023/06/03 03:06:21;;;;;;;7.60;5.20;;;19.20;47.10;;;;;;5039082;28;20466;-47
2023/06/03 03:08:53;;;;;;;4.83;4.30;;;19.20;47.20;;;;;;5047777;28;20220;-47
2023/06/03 03:11:19;;;;;;;6.40;5.37;;;19.20;47.10;;;;;;5030937;28;20467;-47
2023/06/03 03:13:45;;;;;;;9.57;5.30;;;19.10;47.20;;;;;;5031349;28;20762;-47
2023/06/03 03:16:12;;;;;;;5.57;3.77;;;19.10;47.50;;;;;;5031197;28;20259;-47
2023/06/03 03:18:39;;;;;;;9.53;5.40;;;19.00;47.50;;;;;;5029744;28;20486;-47
2023/06/03 03:21:05;;;;;;;5.53;4.93;;;19.00;47.50;;;;;;5030590;28;20484;-46
2023/06/03 03:23:31;;;;;;;5.73;4.70;;;18.90;47.60;;;;;;5030895;28;20432;-49
2023/06/03 03:25:58;;;;;;;7.13;4.07;;;18.90;47.70;;;;;;5031164;28;20428;-48
2023/06/03 03:28:24;;;;;;;7.87;5.37;;;18.80;47.90;;;;;;5031157;28;20421;-48
2023/06/03 03:30:50;;;;;;;6.97;4.30;;;18.80;48.10;;;;;;5040722;28;20903;-47
2023/06/03 03:33:20;;;;;;;4.23;3.87;;;18.80;47.90;;;;;;5033339;28;20431;-48
2023/06/03 03:35:48;;;;;;;6.10;4.40;;;18.80;47.90;;;;;;5030710;28;20653;-47
2023/06/03 03:38:14;;;;;;;8.80;4.90;;;18.70;47.90;;;;;;5030930;28;20779;-48
2023/06/03 03:40:40;;;;;;;6.93;4.47;;;18.70;47.90;;;;;;5030533;28;20550;-46
2023/06/03 03:43:17;;;;;;;8.43;4.87;;;18.70;47.90;;;;;;5030901;28;20436;-46
2023/06/03 03:45:43;;;;;;;6.70;5.07;;;18.70;48.00;;;;;;5030974;28;20641;-46
2023/06/03 03:48:13;;;;;;;7.60;4.60;;;18.70;48.20;;;;;;5030718;28;20469;-47
2023/06/03 03:50:41;;;;;;;8.63;5.47;;;18.60;48.10;;;;;;5030345;28;20281;-47
2023/06/03 03:53:15;;;;;;;11.40;5.50;;;18.60;48.30;;;;;;5037597;28;21060;-47
2023/06/03 03:55:42;;;;;;;9.77;5.17;;;18.50;48.40;;;;;;5030738;28;20428;-46
2023/06/03 03:58:36;;;;;;;8.17;5.40;;;18.50;48.50;;;;;;5030781;28;20715;-47
2023/06/03 04:01:09;;;;;;;6.00;5.17;;;18.50;48.50;;;;;;5027513;28;20598;-47
2023/06/03 04:03:40;;;;;;;6.10;4.73;;;18.50;48.60;;;;;;5034346;28;20424;-46
2023/06/03 04:06:09;;;;;;;8.00;4.67;;;18.50;48.70;;;;;;5041223;28;20462;-48
2023/06/03 04:08:39;;;;;;;7.87;5.33;;;18.50;48.70;;;;;;5053677;28;20424;-47
2023/06/03 04:11:07;;;;;;;11.00;5.53;;;18.50;48.90;;;;;;5033785;28;20493;-47
2023/06/03 04:13:38;;;;;;;7.87;5.90;;;18.50;48.90;;;;;;5034120;28;20443;-46
2023/06/03 04:16:11;;;;;;;11.83;5.83;;;18.50;49.20;;;;;;5034173;28;20510;-46
2023/06/03 04:18:41;;;;;;;10.73;5.53;;;18.50;49.10;;;;;;5033991;28;20452;-49
2023/06/03 04:21:16;;;;;;;8.10;5.63;;;18.50;49.20;;;;;;5033492;28;20582;-50
2023/06/03 04:23:42;;;;;;;7.40;5.50;;;18.50;49.10;;;;;;5033778;28;20474;-47
2023/06/03 04:26:09;;;;;;;6.70;5.30;;;18.60;49.30;;;;;;5033705;28;20970;-47
2023/06/03 04:28:37;;;;;;;8.00;5.10;;;18.60;49.30;;;;;;5032687;28;20193;-46
2023/06/03 04:31:02;;;;;;;6.30;5.70;;;18.50;49.40;;;;;;5033404;28;21832;-47
2023/06/03 04:33:28;;;;;;;6.90;5.07;;;18.50;49.40;;;;;;5033776;28;20417;-46
2023/06/03 04:35:54;;;;;;;5.93;5.10;;;18.50;49.40;;;;;;5033763;28;20189;-48
2023/06/03 04:38:19;;;;;;;8.30;5.57;;;18.50;49.20;;;;;;5033666;28;20189;-48
2023/06/03 04:40:46;;;;;;;7.73;5.47;;;18.50;49.20;;;;;;5033237;28;20225;-46
2023/06/03 04:43:14;;;;;;;7.33;4.90;;;18.60;49.20;;;;;;5033598;28;20212;-46
2023/06/03 04:45:40;;;;;;;5.80;5.10;;;18.70;49.10;;;;;;5033772;28;20517;-46
2023/06/03 04:48:05;;;;;;;5.13;4.53;;;18.80;48.90;;;;;;5033445;28;21169;-46
2023/06/03 04:50:35;;;;;;;7.87;5.30;;;18.80;48.90;;;;;;5033079;28;20958;-50
2023/06/03 04:53:02;;;;;;;9.50;5.10;;;18.90;48.90;;;;;;5031590;28;20215;-46
2023/06/03 04:55:27;;;;;;;8.77;5.93;;;18.90;48.80;;;;;;5051646;28;20790;-47
2023/06/03 04:57:53;;;;;;;9.60;5.90;;;18.90;48.70;;;;;;5034953;28;20416;-49
2023/06/03 05:00:19;;;;;;;6.57;5.90;;;19.00;48.80;;;;;;5033218;28;20703;-48
2023/06/03 05:02:54;;;;;;;9.30;5.40;;;18.90;48.70;;;;;;5032569;28;20440;-47
2023/06/03 05:05:21;;;;;;;6.30;5.13;;;19.00;48.70;;;;;;5033273;28;20711;-47
2023/06/03 05:07:47;;;;;;;6.57;5.10;;;19.10;48.70;;;;;;5053097;28;20813;-48
2023/06/03 05:10:13;;;;;;;9.80;5.20;;;19.10;48.70;;;;;;5039349;28;20432;-46
2023/06/03 05:12:38;;;;;;;8.00;5.83;;;19.20;48.60;;;;;;5031641;28;20589;-47
2023/06/03 05:15:04;;;;;;;9.97;5.90;;;19.20;48.50;;;;;;5032930;28;20287;-46
2023/06/03 05:17:30;;;;;;;6.00;5.50;;;19.30;48.70;;;;;;5033119;28;20259;-46
2023/06/03 05:19:55;;;;;;;9.00;6.23;;;19.40;48.70;;;;;;5031345;28;20480;-47
2023/06/03 05:22:21;;;;;;;7.30;5.60;;;19.40;48.60;;;;;;5032602;28;20724;-47
2023/06/03 05:24:46;;;;;;;8.33;5.60;;;19.50;48.70;;;;;;5031468;28;20534;-47
2023/06/03 05:27:12;;;;;;;9.27;5.33;;;19.60;48.70;;;;;;5032754;28;20192;-47
2023/06/03 05:29:37;;;;;;;10.50;6.40;;;19.60;48.60;;;;;;5032680;28;20228;-47
2023/06/03 05:32:03;;;;;;;9.97;5.77;;;19.70;48.40;;;;;;5032117;28;20618;-48
2023/06/03 05:34:29;;;;;;;8.00;5.17;;;19.80;48.20;;;;;;5051001;28;20192;-46
2023/06/03 05:36:54;;;;;;;6.93;6.20;;;19.80;48.10;;;;;;5032743;28;20420;-48
2023/06/03 05:39:20;;;;;;;11.00;6.23;;;19.90;48.10;;;;;;5032614;28;20212;-48
2023/06/03 05:41:46;;;;;;;9.50;5.57;;;20.00;48.10;;;;;;5032002;28;20263;-47
2023/06/03 05:44:11;;;;;;;13.40;5.97;;;20.00;48.00;;;;;;5032554;28;20268;-47
2023/06/03 05:46:37;;;;;;;10.70;5.80;;;20.10;47.80;;;;;;5030564;28;20242;-47
2023/06/03 05:49:02;;;;;;;11.23;6.00;;;20.00;47.80;;;;;;5032100;28;20534;-48
2023/06/03 05:51:28;;;;;;;7.57;4.63;;;20.10;48.10;;;;;;5032141;28;20251;-47
2023/06/03 05:53:53;;;;;;;8.87;4.77;;;20.20;47.20;;;;;;5037645;28;20687;-48
2023/06/03 05:56:19;;;;;;;8.20;5.23;;;20.20;46.90;;;;;;5046571;28;20196;-47
2023/06/03 05:58:45;;;;;;;6.40;4.43;;;20.30;46.60;;;;;;5032256;28;20198;-47
2023/06/03 06:01:10;;;;;;;8.73;5.17;;;20.40;46.50;;;;;;5031904;28;20229;-47
2023/06/03 06:03:36;;;;;;;8.07;4.60;;;20.40;46.60;;;;;;5031913;28;20208;-48
2023/06/03 06:06:01;;;;;;;5.77;4.43;;;20.50;46.10;;;;;;5037665;28;20353;-46
2023/06/03 06:08:28;;;;;;;6.20;4.10;;;20.60;45.80;;;;;;5034066;28;20274;-47
2023/06/03 06:10:53;;;;;;;7.10;4.60;;;20.70;45.80;;;;;;5032137;28;20335;-49
2023/06/03 06:13:19;;;;;;;8.60;5.17;;;20.90;45.70;;;;;;5030757;28;20975;-48
2023/06/03 06:15:59;;;;;;;7.20;4.40;;;20.90;45.60;;;;;;5031771;28;20205;-47
2023/06/03 06:18:25;;;;;;;9.63;5.10;;;21.00;45.50;;;;;;5031891;28;20197;-48
2023/06/03 06:20:51;;;;;;;10.53;5.80;;;21.10;45.40;;;;;;5031460;28;20487;-47
2023/06/03 06:23:17;;;;;;;10.77;5.40;;;21.20;45.30;;;;;;5031616;28;20458;-47
2023/06/03 06:25:50;;;;;;;10.90;4.33;;;21.30;45.20;;;;;;5031489;28;20220;-47
2023/06/03 06:28:20;;;;;;;6.57;5.13;;;21.40;44.80;;;;;;5031958;28;20187;-47
2023/06/03 06:30:46;;;;;;;8.67;4.80;;;21.50;44.80;;;;;;5031251;28;20498;-47
2023/06/03 06:33:16;;;;;;;8.40;4.60;;;21.70;44.50;;;;;;5031692;28;20898;-48
2023/06/03 06:35:42;;;;;;;9.37;4.73;;;21.80;44.70;;;;;;5031624;28;20539;-47
2023/06/03 06:38:08;;;;;;;9.00;5.00;;;21.90;44.70;;;;;;5031471;28;20464;-47
2023/06/03 06:40:34;;;;;;;9.37;4.50;;;21.90;44.60;;;;;;5029588;28;20584;-47
2023/06/03 06:43:03;;;;;;;8.10;4.40;;;22.10;44.40;;;;;;5031430;28;20963;-47
2023/06/03 06:45:30;;;;;;;9.23;5.10;;;22.20;44.00;;;;;;5031379;28;20852;-47
2023/06/03 06:48:06;;;;;;;10.10;4.93;;;22.30;44.10;;;;;;5031527;28;20435;-47
2023/06/03 06:50:50;;;;;;;10.00;4.80;;;22.40;44.00;;;;;;5029777;28;20842;-48
2023/06/03 06:53:18;;;;;;;10.27;5.13;;;22.50;44.10;;;;;;5038201;28;20431;-48
2023/06/03 06:56:00;;;;;;;11.23;4.73;;;22.60;43.80;;;;;;5031141;28;20432;-49
2023/06/03 06:58:29;;;;;;;10.10;4.43;;;22.80;44.10;;;;;;5031192;28;20790;-48
2023/06/03 07:00:57;;;;;;;12.50;5.17;;;22.90;44.30;;;;;;5030687;28;20491;-48
2023/06/03 07:03:23;;;;;;;6.77;4.77;;;23.00;43.10;;;;;;5031418;28;20436;-47
2023/06/03 07:05:52;;;;;;;10.07;4.53;;;23.20;43.10;;;;;;5033335;28;20604;-47
2023/06/03 07:08:18;;;;;;;7.67;5.43;;;23.30;43.10;;;;;;5051059;28;20291;-48
2023/06/03 07:10:44;;;;;;;13.23;5.73;;;23.40;43.40;;;;;;5032581;28;20803;-49
2023/06/03 07:13:09;;;;;;;11.10;5.43;;;23.60;42.90;;;;;;5031135;28;20444;-48
2023/06/03 07:15:41;;;;;;;6.87;5.00;;;23.70;42.60;;;;;;5031201;28;20185;-47
2023/06/03 07:18:12;;;;;;;7.40;4.60;;;23.70;42.10;;;;;;5029876;28;20197;-47
2023/06/03 07:20:45;;;;;;;11.17;4.50;;;23.70;42.70;;;;;;5030587;28;20488;-47
2023/06/03 07:23:17;;;;;;;10.10;5.27;;;23.90;41.80;;;;;;5031065;28;20499;-47
2023/06/03 07:25:43;;;;;;;6.50;4.23;;;23.90;41.70;;;;;;5031172;28;20455;-48
2023/06/03 07:28:17;;;;;;;12.67;4.93;;;23.70;41.60;;;;;;5030899;28;20852;-47
2023/06/03 07:30:45;;;;;;;7.63;4.93;;;23.70;41.50;;;;;;5030773;28;20428;-48
2023/06/03 07:33:26;;;;;;;9.20;4.80;;;23.80;41.70;;;;;;5029389;28;20439;-47
2023/06/03 07:36:01;;;;;;;7.57;4.13;;;24.10;41.50;;;;;;5031229;28;20424;-48
2023/06/03 07:38:46;;;;;;;8.83;4.40;;;24.40;40.90;;;;;;5034551;28;20435;-48
2023/06/03 07:41:17;;;;;;;8.47;5.10;;;24.70;41.70;;;;;;5034313;28;20475;-48
2023/06/03 07:43:42;;;;;;;9.60;4.27;;;25.00;40.50;;;;;;5034684;28;20444;-47
2023/06/03 07:46:09;;;;;;;7.80;4.70;;;25.30;39.50;;;;;;5034448;28;20427;-47
2023/06/03 07:48:38;;;;;;;6.20;4.40;;;25.10;39.30;;;;;;5034848;28;20584;-49
2023/06/03 07:51:05;;;;;;;7.43;4.57;;;25.00;39.70;;;;;;5034185;28;20764;-47
2023/06/03 07:53:35;;;;;;;8.60;5.13;;;25.30;39.90;;;;;;5036548;28;20802;-48
2023/06/03 07:56:07;;;;;;;7.73;5.00;;;25.60;39.40;;;;;;5051036;28;20522;-47
2023/06/03 07:58:35;;;;;;;6.77;4.57;;;25.40;38.70;;;;;;5032716;28;20942;-47
2023/06/03 08:01:02;;;;;;;5.30;4.37;;;24.90;39.70;;;;;;5034030;28;20809;-48
2023/06/03 08:03:28;;;;;;;8.33;4.90;;;25.10;39.80;;;;;;5034213;28;20957;-48
2023/06/03 08:05:55;;;;;;;8.73;4.90;;;25.40;39.50;;;;;;5038903;28;20455;-47
2023/06/03 08:08:28;;;;;;;19.33;5.87;;;25.00;39.70;;;;;;5054316;28;20196;-48
2023/06/03 08:10:54;;;;;;;6.23;4.70;;;25.00;39.90;;;;;;5053896;28;20514;-48
2023/06/03 08:13:19;;;;;;;6.33;4.17;;;24.90;39.60;;;;;;5054330;28;20574;-48
2023/06/03 08:15:47;;;;;;;11.83;5.10;;;25.00;39.90;;;;;;5053936;28;20192;-48
2023/06/03 08:18:38;;;;;;;7.17;4.73;;;25.40;39.70;;;;;;5054165;28;20560;-47
2023/06/03 08:21:03;;;;;;;11.50;5.50;;;25.30;39.30;;;;;;5053401;28;20561;-48
2023/06/03 08:23:30;;;;;;;7.40;5.90;;;25.60;39.00;;;;;;5053763;28;20593;-47
2023/06/03 08:25:59;;;;;;;8.07;4.80;;;26.00;38.50;;;;;;5052311;28;20192;-49
2023/06/03 08:28:25;;;;;;;7.37;4.77;;;26.10;39.20;;;;;;5053668;28;20423;-51
2023/06/03 08:30:52;;;;;;;9.63;4.80;;;26.30;37.90;;;;;;5053659;28;20510;-48
2023/06/03 08:33:18;;;;;;;9.03;5.10;;;26.50;37.50;;;;;;5053698;28;20184;-48
2023/06/03 08:35:44;;;;;;;6.40;5.03;;;26.60;37.20;;;;;;5054066;28;20855;-48
2023/06/03 08:38:10;;;;;;;8.70;4.93;;;26.90;36.90;;;;;;5053647;28;20274;-47
2023/06/03 08:40:45;;;;;;;6.40;4.60;;;26.90;37.00;;;;;;5053064;28;20962;-48
2023/06/03 08:43:11;;;;;;;8.37;4.83;;;26.70;36.80;;;;;;5053576;28;20215;-47
2023/06/03 08:45:45;;;;;;;8.47;4.90;;;26.90;37.40;;;;;;5053523;28;20613;-47
2023/06/03 08:48:31;;;;;;;6.27;4.57;;;26.80;37.20;;;;;;5053024;28;20434;-47
2023/06/03 08:51:06;;;;;;;10.93;5.50;;;27.00;37.00;;;;;;5052359;28;20434;-50
2023/06/03 08:53:49;;;;;;;8.03;5.10;;;27.30;36.70;;;;;;5050841;28;20422;-49
2023/06/03 08:56:20;;;;;;;8.40;5.30;;;27.60;36.30;;;;;;5033184;28;20439;-48
2023/06/03 08:58:54;;;;;;;6.90;5.10;;;27.80;35.90;;;;;;5033183;28;20431;-48
2023/06/03 09:01:31;;;;;;;7.30;5.07;;;28.10;36.00;;;;;;5039946;28;20568;-47
2023/06/03 09:03:57;;;;;;;8.83;5.20;;;28.30;35.10;;;;;;5052920;28;20446;-48
2023/06/03 09:06:23;;;;;;;9.50;4.50;;;28.40;34.80;;;;;;5053029;28;20513;-49
2023/06/03 09:08:51;;;;;;;6.03;4.60;;;28.70;34.70;;;;;;5050753;28;20524;-48
2023/06/03 09:11:17;;;;;;;7.67;4.83;;;28.90;34.10;;;;;;5032740;28;20213;-48
2023/06/03 09:13:44;;;;;;;10.20;5.60;;;29.00;34.00;;;;;;5033014;28;20452;-49
2023/06/03 09:16:10;;;;;;;16.67;6.80;;;28.90;35.20;;;;;;5032965;28;21013;-49
2023/06/03 09:18:36;;;;;;;9.17;5.13;;;28.30;35.20;;;;;;5030081;28;20955;-49
2023/06/03 09:21:03;;;;;;;7.83;4.73;;;28.30;35.20;;;;;;5032486;28;20480;-48
2023/06/03 09:23:30;;;;;;;23.13;6.10;;;28.50;34.90;;;;;;5032858;28;20431;-48
2023/06/03 09:25:55;;;;;;;16.97;5.70;;;28.80;34.60;;;;;;5032820;28;20751;-51
2023/06/03 09:28:21;;;;;;;12.60;5.73;;;29.20;34.40;;;;;;5032843;28;20435;-49
2023/06/03 09:30:47;;;;;;;9.53;4.50;;;29.40;34.00;;;;;;5032220;28;20209;-49
2023/06/03 09:33:13;;;;;;;7.80;5.23;;;29.60;33.80;;;;;;5032584;28;20923;-50
2023/06/03 09:35:38;;;;;;;7.57;5.00;;;29.70;33.70;;;;;;5032646;28;20185;-48
2023/06/03 09:38:04;;;;;;;11.70;5.30;;;30.00;33.80;;;;;;5032535;28;20201;-48
2023/06/03 09:40:31;;;;;;;8.20;5.73;;;30.20;34.40;;;;;;5031791;28;20224;-49
2023/06/03 09:42:56;;;;;;;8.07;5.60;;;30.50;33.00;;;;;;5032372;28;20189;-48
2023/06/03 09:45:30;;;;;;;7.57;5.83;;;30.60;33.30;;;;;;5030977;28;20482;-49
2023/06/03 09:48:00;;;;;;;8.20;5.50;;;30.80;33.50;;;;;;5032197;28;20205;-50
2023/06/03 09:50:30;;;;;;;12.43;6.70;;;31.00;32.50;;;;;;5031949;28;20440;-48
2023/06/03 09:52:57;;;;;;;13.10;5.23;;;30.90;32.30;;;;;;5032069;28;20436;-50
2023/06/03 09:55:29;;;;;;;5.40;4.90;;;30.50;32.50;;;;;;5049788;28;20430;-49
2023/06/03 09:58:03;;;;;;;7.20;5.00;;;30.70;33.30;;;;;;5033592;28;20999;-49
2023/06/03 10:00:31;;;;;;;8.40;5.37;;;31.10;32.30;;;;;;5031056;28;20528;-49
2023/06/03 10:03:07;;;;;;;12.33;6.80;;;31.50;31.80;;;;;;5031873;28;20538;-49
2023/06/03 10:05:33;;;;;;;6.70;5.63;;;31.70;31.60;;;;;;5033893;28;20479;-49
2023/06/03 10:08:03;;;;;;;9.40;5.90;;;31.50;30.80;;;;;;5051842;28;20423;-48
2023/06/03 10:10:29;;;;;;;8.30;5.50;;;31.60;31.60;;;;;;5035000;28;20447;-48
2023/06/03 10:12:55;;;;;;;7.33;5.30;;;31.30;31.50;;;;;;5031359;28;20439;-48
2023/06/03 10:15:40;;;;;;;5.60;5.10;;;31.50;31.20;;;;;;5031853;28;20243;-48
2023/06/03 10:18:06;;;;;;;6.97;6.27;;;31.60;30.40;;;;;;5031901;28;20436;-48
2023/06/03 10:20:34;;;;;;;5.07;4.67;;;31.50;30.50;;;;;;5031433;28;20519;-49
2023/06/03 10:23:02;;;;;;;6.60;5.20;;;31.80;30.80;;;;;;5031772;28;20915;-49
2023/06/03 10:25:32;;;;;;;8.70;6.23;;;31.80;30.60;;;;;;5031756;28;20439;-48
2023/06/03 10:27:59;;;;;;;6.20;5.30;;;31.80;30.90;;;;;;5031573;28;20527;-52
2023/06/03 10:30:27;;;;;;;5.73;5.23;;;31.60;31.00;;;;;;5031333;28;20506;-51
2023/06/03 10:32:55;;;;;;;7.83;5.47;;;31.70;30.40;;;;;;5031749;28;20428;-49
2023/06/03 10:35:22;;;;;;;7.20;5.63;;;31.80;30.20;;;;;;5038260;28;20506;-50
2023/06/03 10:37:49;;;;;;;7.13;5.50;;;31.80;30.40;;;;;;5050072;28;20469;-48
2023/06/03 10:40:14;;;;;;;6.00;5.40;;;32.20;30.90;;;;;;5050999;28;20506;-49
2023/06/03 10:42:42;;;;;;;8.33;5.90;;;32.70;31.20;;;;;;5051276;28;20522;-51
2023/06/03 10:45:08;;;;;;;5.40;4.63;;;32.70;29.70;;;;;;5051297;28;20298;-49
2023/06/03 10:47:36;;;;;;;5.60;4.80;;;32.80;30.20;;;;;;5051225;28;20496;-49
2023/06/03 10:50:21;;;;;;;9.00;5.70;;;33.20;31.20;;;;;;5050846;28;20431;-48
2023/06/03 10:53:04;;;;;;;5.33;4.83;;;33.30;29.40;;;;;;5051220;28;20481;-49
2023/06/03 10:55:33;;;;;;;6.80;5.47;;;33.30;29.30;;;;;;5033019;28;20428;-48
2023/06/03 10:58:13;;;;;;;5.97;4.93;;;33.10;29.20;;;;;;5031219;28;20435;-49
2023/06/03 11:00:52;;;;;;;7.07;4.90;;;33.00;29.60;;;;;;5030851;28;20823;-49
2023/06/03 11:03:18;;;;;;;9.20;5.63;;;32.70;29.10;;;;;;5031160;28;20458;-52
2023/06/03 11:05:45;;;;;;;5.90;5.30;;;32.70;29.10;;;;;;5032989;28;20516;-49
2023/06/03 11:08:11;;;;;;;7.10;5.77;;;32.80;28.70;;;;;;5051083;28;20923;-49
2023/06/03 11:10:39;;;;;;;5.50;5.00;;;33.00;29.60;;;;;;5035362;28;20515;-49
2023/06/03 11:13:05;;;;;;;5.17;4.67;;;33.20;30.60;;;;;;5035331;28;20846;-49
2023/06/03 11:15:59;;;;;;;6.03;5.07;;;33.40;29.30;;;;;;5035080;28;20436;-49
2023/06/03 11:18:25;;;;;;;5.53;5.03;;;33.60;28.70;;;;;;5035155;28;20796;-50
2023/06/03 11:20:50;;;;;;;8.67;5.40;;;34.00;28.70;;;;;;5034831;28;20479;-50
2023/06/03 11:23:43;;;;;;;8.10;5.80;;;33.90;28.00;;;;;;5034862;28;20276;-48
2023/06/03 11:26:31;;;;;;;6.27;5.40;;;34.00;28.00;;;;;;5032728;28;20681;-50
2023/06/03 11:28:56;;;;;;;6.87;5.57;;;33.50;27.90;;;;;;5042488;28;20438;-48
2023/06/03 11:31:24;;;;;;;6.10;5.60;;;33.30;28.40;;;;;;5052955;28;20914;-50
2023/06/03 11:34:18;;;;;;;6.77;6.07;;;33.20;28.90;;;;;;5054899;28;20197;-48
2023/06/03 11:36:47;;;;;;;6.33;5.73;;;33.30;29.30;;;;;;5054692;28;20435;-49
2023/06/03 11:39:13;;;;;;;6.50;6.00;;;33.20;29.20;;;;;;5054505;28;20423;-48
2023/06/03 11:42:02;;;;;;;10.17;5.70;;;32.90;29.00;;;;;;5054226;28;20434;-49
2023/06/03 11:44:28;;;;;;;6.07;5.47;;;32.90;28.90;;;;;;5054638;28;20582;-50
2023/06/03 11:46:54;;;;;;;6.00;5.40;;;33.30;29.00;;;;;;5054657;28;20783;-49
2023/06/03 11:49:23;;;;;;;6.77;5.80;;;33.80;28.30;;;;;;5054444;28;20426;-49
2023/06/03 11:51:54;;;;;;;6.83;6.23;;;33.80;28.40;;;;;;5054166;28;20441;-50
2023/06/03 11:54:20;;;;;;;9.13;5.77;;;33.60;28.10;;;;;;5045862;28;20467;-48
2023/06/03 11:56:51;;;;;;;10.63;6.40;;;33.70;28.50;;;;;;5032723;28;20518;-49
2023/06/03 11:59:20;;;;;;;5.40;4.90;;;33.70;27.90;;;;;;5034090;28;21081;-48
2023/06/03 12:01:56;;;;;;;49.03;11.70;;;33.50;27.60;;;;;;5033934;28;20431;-49
2023/06/03 12:04:22;;;;;;;7.57;6.63;;;33.50;27.90;;;;;;5034376;28;20439;-49
2023/06/03 12:06:47;;;;;;;8.67;5.40;;;33.40;28.10;;;;;;5046144;28;20467;-48
2023/06/03 12:09:21;;;;;;;7.20;6.10;;;33.40;27.90;;;;;;5048864;28;20200;-49
2023/06/03 12:11:47;;;;;;;8.93;5.47;;;33.60;27.40;;;;;;5033739;28;20211;-49
2023/06/03 12:14:33;;;;;;;5.67;5.17;;;33.80;27.40;;;;;;5034005;28;20436;-48
2023/06/03 12:17:10;;;;;;;7.10;6.27;;;34.10;27.10;;;;;;5033973;28;20193;-49
2023/06/03 12:19:38;;;;;;;7.73;6.50;;;34.10;27.10;;;;;;5033890;28;20491;-48
2023/06/03 12:22:04;;;;;;;6.03;5.53;;;33.50;27.50;;;;;;5032858;28;20922;-50
2023/06/03 12:24:32;;;;;;;6.57;5.97;;;32.90;28.00;;;;;;5032366;28;20443;-49
2023/06/03 12:27:21;;;;;;;9.17;6.97;;;32.90;28.50;;;;;;5033795;28;20431;-48
2023/06/03 12:29:49;;;;;;;6.20;5.60;;;32.90;28.50;;;;;;5033584;28;20428;-49
2023/06/03 12:32:15;;;;;;;5.97;5.47;;;32.80;28.90;;;;;;5033847;28;20502;-48
2023/06/03 12:34:42;;;;;;;7.40;5.67;;;33.00;28.30;;;;;;5033624;28;20436;-48
2023/06/03 12:37:08;;;;;;;7.90;5.77;;;33.10;28.30;;;;;;5033691;28;20201;-48
2023/06/03 12:39:49;;;;;;;9.13;6.10;;;33.10;29.60;;;;;;5033443;28;20869;-48
2023/06/03 12:42:16;;;;;;;8.60;7.80;;;33.20;29.70;;;;;;5033656;28;20205;-49
2023/06/03 12:44:48;;;;;;;5.60;5.10;;;33.50;28.10;;;;;;5033289;28;20436;-49
2023/06/03 12:47:15;;;;;;;5.20;4.57;;;33.10;27.90;;;;;;5033495;28;20803;-49
2023/06/03 12:49:42;;;;;;;5.87;5.20;;;33.30;28.40;;;;;;5031480;28;20547;-49
2023/06/03 12:52:19;;;;;;;13.57;6.07;;;33.50;27.40;;;;;;5033260;28;20432;-48